EWG26PZ LEPA-LOWW
Flight info
| Callsign | EWG26PZ |
|---|---|
| Flight time | 1h 57m |
| Altitude | 32000 |
| Route | MEROS DCT LAPIT DCT CHELY DCT LUMAS/N0428F340 DCT UNANA/N0417F300 DCT STP/N0435F360 DCT RAPED/N0448F380 DCT PIGOS DCT EKSID DCT NOSTA DCT EGHIN/N0439F370 DCT ARALD DCT ABTAN ABTAN2W |
| Aircraft | A321/M-SDE3FGHIRWY/LB1 |
Departure
| Time | 2026-05-06 19:12 |
|---|---|
| Airport | Palma de Mallorca Airport (LEPA) |
Arrival
| Time | 2026-05-06 21:09 |
|---|---|
| Airport | Vienna International Airport (LOWW) |
| Time | Latitude | Longitude | Altitude | Speed | Heading |
|---|---|---|---|---|---|
| 2026-05-06 18:30 | 39.54712 | 2.73657 | 40 ft | 0 kts | 58° |
| 2026-05-06 19:03 | 39.54711 | 2.73656 | 39 ft | 0 kts | 58° |
| 2026-05-06 19:03 | 39.54704 | 2.73639 | 39 ft | 2 kts | 58° |
| 2026-05-06 19:04 | 39.54695 | 2.73622 | 39 ft | 2 kts | 58° |
| 2026-05-06 19:04 | 39.54687 | 2.73602 | 39 ft | 3 kts | 92° |
| 2026-05-06 19:04 | 39.54693 | 2.73585 | 39 ft | 0 kts | 145° |
| 2026-05-06 19:04 | 39.54700 | 2.73580 | 39 ft | 0 kts | 149° |
| 2026-05-06 19:07 | 39.54698 | 2.73581 | 39 ft | 0 kts | 149° |
| 2026-05-06 19:07 | 39.54680 | 2.73596 | 39 ft | 5 kts | 151° |
| 2026-05-06 19:07 | 39.54636 | 2.73618 | 39 ft | 7 kts | 159° |
| 2026-05-06 19:07 | 39.54579 | 2.73637 | 39 ft | 8 kts | 186° |
| 2026-05-06 19:08 | 39.54533 | 2.73582 | 39 ft | 9 kts | 239° |
| 2026-05-06 19:08 | 39.54493 | 2.73498 | 39 ft | 11 kts | 238° |
| 2026-05-06 19:08 | 39.54448 | 2.73406 | 39 ft | 12 kts | 238° |
| 2026-05-06 19:08 | 39.54400 | 2.73305 | 39 ft | 13 kts | 239° |
| 2026-05-06 19:09 | 39.54351 | 2.73201 | 39 ft | 10 kts | 239° |
| 2026-05-06 19:09 | 39.54297 | 2.73172 | 39 ft | 9 kts | 135° |
| 2026-05-06 19:09 | 39.54280 | 2.73253 | 39 ft | 5 kts | 94° |
| 2026-05-06 19:09 | 39.54280 | 2.73256 | 39 ft | 0 kts | 94° |
| 2026-05-06 19:11 | 39.54279 | 2.73274 | 39 ft | 5 kts | 94° |
| 2026-05-06 19:11 | 39.54274 | 2.73380 | 39 ft | 15 kts | 94° |
| 2026-05-06 19:11 | 39.54310 | 2.73561 | 39 ft | 35 kts | 57° |
| 2026-05-06 19:11 | 39.54628 | 2.74230 | 40 ft | 119 kts | 59° |
| 2026-05-06 19:12 | 39.55268 | 2.75573 | 137 ft | 188 kts | 58° |
| 2026-05-06 19:12 | 39.56036 | 2.77225 | 922 ft | 206 kts | 60° |
| 2026-05-06 19:12 | 39.56829 | 2.79005 | 2063 ft | 210 kts | 62° |
| 2026-05-06 19:12 | 39.57595 | 2.80797 | 2878 ft | 209 kts | 62° |
| 2026-05-06 19:13 | 39.58455 | 2.82688 | 3291 ft | 230 kts | 59° |
| 2026-05-06 19:13 | 39.59444 | 2.84654 | 3832 ft | 245 kts | 57° |
| 2026-05-06 19:13 | 39.60449 | 2.86600 | 4432 ft | 255 kts | 57° |
| 2026-05-06 19:13 | 39.61436 | 2.88589 | 5227 ft | 255 kts | 58° |
| 2026-05-06 19:14 | 39.62372 | 2.90601 | 6191 ft | 249 kts | 55° |
| 2026-05-06 19:14 | 39.63613 | 2.92211 | 6676 ft | 259 kts | 28° |
| 2026-05-06 19:14 | 39.65393 | 2.93279 | 7096 ft | 274 kts | 26° |
| 2026-05-06 19:14 | 39.66924 | 2.94946 | 7657 ft | 285 kts | 54° |
| 2026-05-06 19:15 | 39.67705 | 2.97328 | 8369 ft | 288 kts | 77° |
| 2026-05-06 19:15 | 39.68138 | 2.99953 | 9062 ft | 292 kts | 76° |
| 2026-05-06 19:15 | 39.68700 | 3.02521 | 9703 ft | 296 kts | 71° |
| 2026-05-06 19:15 | 39.69442 | 3.05074 | 10318 ft | 301 kts | 67° |
| 2026-05-06 19:16 | 39.70303 | 3.07597 | 10642 ft | 316 kts | 64° |
| 2026-05-06 19:16 | 39.71307 | 3.10297 | 10939 ft | 332 kts | 63° |
| 2026-05-06 19:16 | 39.72410 | 3.13151 | 11233 ft | 348 kts | 63° |
| 2026-05-06 19:16 | 39.73550 | 3.16064 | 11509 ft | 363 kts | 63° |
| 2026-05-06 19:17 | 39.74736 | 3.19092 | 11772 ft | 378 kts | 63° |
| 2026-05-06 19:17 | 39.75970 | 3.22242 | 12025 ft | 392 kts | 62° |
| 2026-05-06 19:17 | 39.77346 | 3.25363 | 12262 ft | 405 kts | 57° |
| 2026-05-06 19:17 | 39.79009 | 3.28431 | 12498 ft | 417 kts | 51° |
| 2026-05-06 19:18 | 39.80893 | 3.31368 | 12876 ft | 424 kts | 48° |
| 2026-05-06 19:18 | 39.82832 | 3.34267 | 13393 ft | 428 kts | 47° |
| 2026-05-06 19:18 | 39.84814 | 3.37212 | 13894 ft | 432 kts | 47° |
| 2026-05-06 19:18 | 39.86784 | 3.40146 | 14380 ft | 436 kts | 47° |
| 2026-05-06 19:19 | 39.88805 | 3.43171 | 14860 ft | 440 kts | 47° |
| 2026-05-06 19:19 | 39.90802 | 3.46166 | 15323 ft | 444 kts | 47° |
| 2026-05-06 19:19 | 39.92836 | 3.49226 | 15780 ft | 447 kts | 47° |
| 2026-05-06 19:19 | 39.94903 | 3.52341 | 16236 ft | 451 kts | 47° |
| 2026-05-06 19:20 | 39.96944 | 3.55422 | 16678 ft | 454 kts | 47° |
| 2026-05-06 19:20 | 39.99041 | 3.58593 | 17121 ft | 458 kts | 47° |
| 2026-05-06 19:20 | 40.01108 | 3.61718 | 17547 ft | 461 kts | 47° |
| 2026-05-06 19:20 | 40.03239 | 3.64946 | 17968 ft | 464 kts | 47° |
| 2026-05-06 19:21 | 40.05353 | 3.68148 | 18348 ft | 468 kts | 48° |
| 2026-05-06 19:21 | 40.07488 | 3.71387 | 18724 ft | 472 kts | 48° |
| 2026-05-06 19:21 | 40.09608 | 3.74608 | 19102 ft | 475 kts | 48° |
| 2026-05-06 19:21 | 40.11791 | 3.77927 | 19465 ft | 478 kts | 48° |
| 2026-05-06 19:22 | 40.13960 | 3.81229 | 19823 ft | 481 kts | 48° |
| 2026-05-06 19:22 | 40.16145 | 3.84559 | 20176 ft | 484 kts | 48° |
| 2026-05-06 19:22 | 40.18346 | 3.87919 | 20503 ft | 488 kts | 48° |
| 2026-05-06 19:22 | 40.20544 | 3.91278 | 20818 ft | 491 kts | 48° |
| 2026-05-06 19:23 | 40.22802 | 3.94733 | 21144 ft | 494 kts | 48° |
| 2026-05-06 19:23 | 40.25024 | 3.98136 | 21461 ft | 497 kts | 48° |
| 2026-05-06 19:23 | 40.27274 | 4.01583 | 21757 ft | 500 kts | 48° |
| 2026-05-06 19:23 | 40.29562 | 4.05094 | 22048 ft | 504 kts | 48° |
| 2026-05-06 19:24 | 40.31833 | 4.08583 | 22359 ft | 506 kts | 48° |
| 2026-05-06 19:24 | 40.34103 | 4.12073 | 22628 ft | 509 kts | 48° |
| 2026-05-06 19:24 | 40.36397 | 4.15605 | 22922 ft | 512 kts | 48° |
| 2026-05-06 19:24 | 40.38696 | 4.19148 | 23225 ft | 514 kts | 48° |
| 2026-05-06 19:25 | 40.41013 | 4.22727 | 23623 ft | 513 kts | 48° |
| 2026-05-06 19:25 | 40.43316 | 4.26287 | 24036 ft | 513 kts | 48° |
| 2026-05-06 19:25 | 40.45619 | 4.29850 | 24421 ft | 513 kts | 48° |
| 2026-05-06 19:25 | 40.48001 | 4.33348 | 24780 ft | 511 kts | 41° |
| 2026-05-06 19:26 | 40.50835 | 4.36086 | 25104 ft | 506 kts | 26° |
| 2026-05-06 19:26 | 40.54084 | 4.37807 | 25487 ft | 496 kts | 10° |
| 2026-05-06 19:26 | 40.57446 | 4.38705 | 25923 ft | 491 kts | 5° |
| 2026-05-06 19:26 | 40.60783 | 4.39435 | 26302 ft | 491 kts | 4° |
| 2026-05-06 19:27 | 40.64158 | 4.40157 | 26661 ft | 491 kts | 4° |
| 2026-05-06 19:27 | 40.67522 | 4.40901 | 27018 ft | 491 kts | 4° |
| 2026-05-06 19:27 | 40.70906 | 4.41678 | 27391 ft | 491 kts | 5° |
| 2026-05-06 19:27 | 40.74246 | 4.42466 | 27786 ft | 490 kts | 5° |
| 2026-05-06 19:28 | 40.77577 | 4.43263 | 28202 ft | 489 kts | 4° |
| 2026-05-06 19:28 | 40.80917 | 4.44067 | 28581 ft | 488 kts | 4° |
| 2026-05-06 19:28 | 40.84251 | 4.44870 | 28934 ft | 488 kts | 4° |
| 2026-05-06 19:28 | 40.87571 | 4.45669 | 29276 ft | 487 kts | 4° |
| 2026-05-06 19:29 | 40.90922 | 4.46477 | 29616 ft | 487 kts | 4° |
| 2026-05-06 19:29 | 40.94253 | 4.47283 | 29948 ft | 487 kts | 4° |
| 2026-05-06 19:29 | 40.97560 | 4.48084 | 30261 ft | 487 kts | 4° |
| 2026-05-06 19:29 | 41.00888 | 4.48893 | 30523 ft | 488 kts | 4° |
| 2026-05-06 19:30 | 41.04238 | 4.49705 | 30752 ft | 490 kts | 4° |
| 2026-05-06 19:30 | 41.07571 | 4.50514 | 31000 ft | 491 kts | 4° |
| 2026-05-06 19:30 | 41.10952 | 4.51338 | 31247 ft | 492 kts | 4° |
| 2026-05-06 19:30 | 41.14334 | 4.52161 | 31480 ft | 493 kts | 4° |
| 2026-05-06 19:31 | 41.17683 | 4.52977 | 31672 ft | 494 kts | 4° |
| 2026-05-06 19:31 | 41.21085 | 4.53806 | 31881 ft | 496 kts | 4° |
| 2026-05-06 19:31 | 41.27864 | 4.55463 | 31973 ft | 497 kts | 4° |
| 2026-05-06 19:32 | 41.34667 | 4.57130 | 31975 ft | 498 kts | 4° |
| 2026-05-06 19:32 | 41.41454 | 4.58795 | 31983 ft | 498 kts | 4° |
| 2026-05-06 19:33 | 41.48249 | 4.60467 | 31978 ft | 497 kts | 4° |
| 2026-05-06 19:33 | 41.55072 | 4.62146 | 32280 ft | 500 kts | 4° |
| 2026-05-06 19:34 | 41.58474 | 4.62988 | 32604 ft | 497 kts | 3° |
| 2026-05-06 19:34 | 41.61862 | 4.63828 | 32894 ft | 496 kts | 4° |
| 2026-05-06 19:34 | 41.65269 | 4.64768 | 33108 ft | 499 kts | 7° |
| 2026-05-06 19:34 | 41.68595 | 4.66109 | 33278 ft | 505 kts | 14° |
| 2026-05-06 19:35 | 41.71864 | 4.67933 | 33440 ft | 511 kts | 21° |
| 2026-05-06 19:35 | 41.74976 | 4.70207 | 33628 ft | 515 kts | 27° |
| 2026-05-06 19:35 | 41.77923 | 4.72932 | 33811 ft | 519 kts | 34° |
| 2026-05-06 19:35 | 41.80670 | 4.76089 | 33968 ft | 522 kts | 40° |
| 2026-05-06 19:36 | 41.85804 | 4.82902 | 33976 ft | 524 kts | 43° |
| 2026-05-06 19:36 | 41.90921 | 4.89822 | 33978 ft | 525 kts | 43° |
| 2026-05-06 19:37 | 41.96102 | 4.96762 | 33980 ft | 525 kts | 42° |
| 2026-05-06 19:37 | 42.01276 | 5.03660 | 33979 ft | 525 kts | 42° |
| 2026-05-06 19:38 | 42.06440 | 5.10551 | 33978 ft | 525 kts | 42° |
| 2026-05-06 19:38 | 42.11589 | 5.17436 | 33968 ft | 525 kts | 42° |
| 2026-05-06 19:39 | 42.16741 | 5.24346 | 33971 ft | 524 kts | 42° |
| 2026-05-06 19:39 | 42.21885 | 5.31257 | 33966 ft | 523 kts | 42° |
| 2026-05-06 19:40 | 42.27049 | 5.38215 | 33963 ft | 523 kts | 42° |
| 2026-05-06 19:40 | 42.32180 | 5.45146 | 33966 ft | 523 kts | 42° |
| 2026-05-06 19:41 | 42.37305 | 5.52084 | 33961 ft | 523 kts | 42° |
| 2026-05-06 19:41 | 42.42439 | 5.59049 | 33967 ft | 523 kts | 43° |
| 2026-05-06 19:42 | 42.47558 | 5.66014 | 33958 ft | 523 kts | 43° |
| 2026-05-06 19:42 | 42.52636 | 5.72943 | 33963 ft | 523 kts | 43° |
| 2026-05-06 19:43 | 42.57773 | 5.79966 | 33954 ft | 523 kts | 43° |
| 2026-05-06 19:43 | 42.62859 | 5.86940 | 33954 ft | 522 kts | 44° |
| 2026-05-06 19:44 | 42.67955 | 5.93947 | 33954 ft | 521 kts | 43° |
| 2026-05-06 19:44 | 42.73038 | 6.00946 | 33949 ft | 521 kts | 43° |
| 2026-05-06 19:45 | 42.78116 | 6.07962 | 33944 ft | 521 kts | 44° |
| 2026-05-06 19:45 | 42.83174 | 6.14973 | 33946 ft | 522 kts | 43° |
| 2026-05-06 19:46 | 42.88525 | 6.21702 | 33938 ft | 520 kts | 38° |
| 2026-05-06 19:46 | 42.94046 | 6.28003 | 33934 ft | 521 kts | 37° |
| 2026-05-06 19:47 | 42.99612 | 6.34348 | 33944 ft | 521 kts | 38° |
| 2026-05-06 19:47 | 43.05215 | 6.40787 | 33937 ft | 522 kts | 38° |
| 2026-05-06 19:48 | 43.10736 | 6.47165 | 33942 ft | 521 kts | 38° |
| 2026-05-06 19:48 | 43.16260 | 6.53562 | 33929 ft | 521 kts | 38° |
| 2026-05-06 19:49 | 43.21566 | 6.60350 | 33929 ft | 524 kts | 45° |
| 2026-05-06 19:49 | 43.23974 | 6.64076 | 34060 ft | 526 kts | 49° |
| 2026-05-06 19:49 | 43.26215 | 6.68032 | 34321 ft | 523 kts | 54° |
| 2026-05-06 19:50 | 43.28341 | 6.72062 | 34568 ft | 521 kts | 55° |
| 2026-05-06 19:50 | 43.30425 | 6.76090 | 34765 ft | 519 kts | 54° |
| 2026-05-06 19:50 | 43.32542 | 6.80173 | 34933 ft | 518 kts | 54° |
| 2026-05-06 19:50 | 43.34660 | 6.84225 | 35052 ft | 518 kts | 54° |
| 2026-05-06 19:51 | 43.36739 | 6.88184 | 35176 ft | 517 kts | 54° |
| 2026-05-06 19:51 | 43.38849 | 6.92194 | 35334 ft | 516 kts | 54° |
| 2026-05-06 19:51 | 43.40940 | 6.96177 | 35459 ft | 515 kts | 54° |
| 2026-05-06 19:51 | 43.43041 | 7.00181 | 35548 ft | 514 kts | 54° |
| 2026-05-06 19:52 | 43.45120 | 7.04156 | 35668 ft | 514 kts | 54° |
| 2026-05-06 19:52 | 43.47269 | 7.08268 | 35824 ft | 513 kts | 54° |
| 2026-05-06 19:52 | 43.49339 | 7.12236 | 35938 ft | 512 kts | 54° |
| 2026-05-06 19:52 | 43.51418 | 7.16229 | 36061 ft | 512 kts | 54° |
| 2026-05-06 19:53 | 43.53476 | 7.20188 | 36211 ft | 512 kts | 54° |
| 2026-05-06 19:53 | 43.55537 | 7.24160 | 36337 ft | 511 kts | 54° |
| 2026-05-06 19:53 | 43.57609 | 7.28154 | 36488 ft | 511 kts | 54° |
| 2026-05-06 19:53 | 43.59669 | 7.32134 | 36622 ft | 510 kts | 54° |
| 2026-05-06 19:54 | 43.61778 | 7.36210 | 36757 ft | 511 kts | 54° |
| 2026-05-06 19:54 | 43.63927 | 7.40310 | 36873 ft | 511 kts | 52° |
| 2026-05-06 19:54 | 43.66119 | 7.44196 | 37008 ft | 510 kts | 51° |
| 2026-05-06 19:54 | 43.68351 | 7.48045 | 37121 ft | 510 kts | 51° |
| 2026-05-06 19:55 | 43.70538 | 7.51806 | 37252 ft | 509 kts | 51° |
| 2026-05-06 19:55 | 43.72784 | 7.55689 | 37396 ft | 509 kts | 51° |
| 2026-05-06 19:55 | 43.75017 | 7.59571 | 37499 ft | 509 kts | 51° |
| 2026-05-06 19:55 | 43.77212 | 7.63404 | 37603 ft | 508 kts | 51° |
| 2026-05-06 19:56 | 43.79419 | 7.67267 | 37728 ft | 507 kts | 52° |
| 2026-05-06 19:56 | 43.81623 | 7.71143 | 37826 ft | 507 kts | 52° |
| 2026-05-06 19:56 | 43.86028 | 7.78904 | 37921 ft | 507 kts | 52° |
| 2026-05-06 19:57 | 43.90411 | 7.86651 | 37920 ft | 508 kts | 52° |
| 2026-05-06 19:57 | 43.94743 | 7.94326 | 37909 ft | 507 kts | 52° |
| 2026-05-06 19:58 | 43.99125 | 8.02113 | 37911 ft | 508 kts | 52° |
| 2026-05-06 19:58 | 44.03514 | 8.09931 | 37896 ft | 508 kts | 52° |
| 2026-05-06 19:59 | 44.07910 | 8.17781 | 37880 ft | 509 kts | 52° |
| 2026-05-06 19:59 | 44.12349 | 8.25737 | 37871 ft | 508 kts | 52° |
| 2026-05-06 20:00 | 44.16759 | 8.33661 | 37890 ft | 507 kts | 52° |
| 2026-05-06 20:00 | 44.21170 | 8.41603 | 37878 ft | 506 kts | 52° |
| 2026-05-06 20:01 | 44.25531 | 8.49480 | 37886 ft | 506 kts | 52° |
| 2026-05-06 20:01 | 44.29865 | 8.57325 | 37885 ft | 506 kts | 52° |
| 2026-05-06 20:02 | 44.34132 | 8.65074 | 37898 ft | 505 kts | 53° |
| 2026-05-06 20:02 | 44.38417 | 8.72870 | 37897 ft | 505 kts | 53° |
| 2026-05-06 20:03 | 44.42672 | 8.80642 | 37901 ft | 505 kts | 53° |
| 2026-05-06 20:03 | 44.46914 | 8.88404 | 37910 ft | 506 kts | 53° |
| 2026-05-06 20:04 | 44.51177 | 8.96236 | 37912 ft | 505 kts | 53° |
| 2026-05-06 20:04 | 44.55398 | 9.04002 | 37916 ft | 505 kts | 53° |
| 2026-05-06 20:05 | 44.59622 | 9.11793 | 37921 ft | 504 kts | 53° |
| 2026-05-06 20:05 | 44.63850 | 9.19621 | 37924 ft | 505 kts | 53° |
| 2026-05-06 20:06 | 44.68077 | 9.27465 | 37926 ft | 505 kts | 53° |
| 2026-05-06 20:06 | 44.72295 | 9.35313 | 37919 ft | 506 kts | 53° |
| 2026-05-06 20:07 | 44.76524 | 9.43198 | 37891 ft | 506 kts | 53° |
| 2026-05-06 20:07 | 44.80743 | 9.51093 | 37896 ft | 506 kts | 53° |
| 2026-05-06 20:08 | 44.84943 | 9.58972 | 37923 ft | 507 kts | 53° |
| 2026-05-06 20:08 | 44.89158 | 9.66901 | 37890 ft | 509 kts | 54° |
| 2026-05-06 20:09 | 44.93385 | 9.74875 | 37902 ft | 509 kts | 54° |
| 2026-05-06 20:09 | 44.97606 | 9.82858 | 37917 ft | 510 kts | 54° |
| 2026-05-06 20:10 | 45.01840 | 9.90894 | 37888 ft | 511 kts | 54° |
| 2026-05-06 20:10 | 45.06058 | 9.98913 | 37913 ft | 512 kts | 54° |
| 2026-05-06 20:11 | 45.10259 | 10.06930 | 37861 ft | 510 kts | 54° |
| 2026-05-06 20:11 | 45.14494 | 10.15031 | 37874 ft | 510 kts | 54° |
| 2026-05-06 20:12 | 45.18689 | 10.23078 | 37875 ft | 509 kts | 54° |
| 2026-05-06 20:12 | 45.22897 | 10.31173 | 37859 ft | 509 kts | 54° |
| 2026-05-06 20:13 | 45.27185 | 10.39448 | 37892 ft | 507 kts | 54° |
| 2026-05-06 20:13 | 45.31638 | 10.48067 | 37879 ft | 506 kts | 54° |
| 2026-05-06 20:14 | 45.35862 | 10.56263 | 37895 ft | 505 kts | 54° |
| 2026-05-06 20:14 | 45.40034 | 10.64383 | 37890 ft | 505 kts | 54° |
| 2026-05-06 20:15 | 45.44210 | 10.72533 | 37888 ft | 504 kts | 55° |
| 2026-05-06 20:15 | 45.48384 | 10.80703 | 37902 ft | 503 kts | 55° |
| 2026-05-06 20:16 | 45.52564 | 10.88910 | 37927 ft | 503 kts | 55° |
| 2026-05-06 20:16 | 45.56773 | 10.97198 | 37905 ft | 502 kts | 55° |
| 2026-05-06 20:17 | 45.61051 | 11.05650 | 37929 ft | 502 kts | 54° |
| 2026-05-06 20:17 | 45.65305 | 11.14074 | 37928 ft | 502 kts | 54° |
| 2026-05-06 20:18 | 45.69603 | 11.22609 | 37935 ft | 502 kts | 54° |
| 2026-05-06 20:18 | 45.73901 | 11.31179 | 37946 ft | 502 kts | 54° |
| 2026-05-06 20:19 | 45.78162 | 11.39689 | 37949 ft | 502 kts | 54° |
| 2026-05-06 20:19 | 45.82409 | 11.48203 | 37952 ft | 501 kts | 55° |
| 2026-05-06 20:20 | 45.86537 | 11.56505 | 37950 ft | 501 kts | 55° |
| 2026-05-06 20:20 | 45.90616 | 11.64731 | 37952 ft | 500 kts | 54° |
| 2026-05-06 20:21 | 45.94808 | 11.73205 | 37955 ft | 500 kts | 56° |
| 2026-05-06 20:21 | 45.98971 | 11.81650 | 37970 ft | 501 kts | 56° |
| 2026-05-06 20:22 | 46.03124 | 11.90107 | 37969 ft | 501 kts | 56° |
| 2026-05-06 20:22 | 46.07335 | 11.98700 | 37985 ft | 501 kts | 56° |
| 2026-05-06 20:23 | 46.11507 | 12.07239 | 37973 ft | 500 kts | 56° |
| 2026-05-06 20:23 | 46.15633 | 12.15709 | 37962 ft | 499 kts | 56° |
| 2026-05-06 20:24 | 46.19725 | 12.24140 | 37973 ft | 498 kts | 56° |
| 2026-05-06 20:24 | 46.23801 | 12.32563 | 37978 ft | 497 kts | 56° |
| 2026-05-06 20:25 | 46.27846 | 12.40940 | 37972 ft | 498 kts | 56° |
| 2026-05-06 20:25 | 46.31911 | 12.49388 | 37974 ft | 497 kts | 56° |
| 2026-05-06 20:26 | 46.35949 | 12.57806 | 37973 ft | 497 kts | 56° |
| 2026-05-06 20:26 | 46.40019 | 12.66316 | 37979 ft | 497 kts | 56° |
| 2026-05-06 20:27 | 46.44026 | 12.74714 | 37975 ft | 496 kts | 56° |
| 2026-05-06 20:27 | 46.47999 | 12.83077 | 37985 ft | 496 kts | 56° |
| 2026-05-06 20:28 | 46.51937 | 12.91383 | 37991 ft | 495 kts | 56° |
| 2026-05-06 20:28 | 46.55853 | 12.99668 | 37975 ft | 495 kts | 56° |
| 2026-05-06 20:29 | 46.59771 | 13.07989 | 37992 ft | 495 kts | 56° |
| 2026-05-06 20:29 | 46.63649 | 13.16245 | 38005 ft | 493 kts | 57° |
| 2026-05-06 20:30 | 46.69251 | 13.28792 | 37997 ft | 492 kts | 62° |
| 2026-05-06 20:31 | 46.72425 | 13.37570 | 37978 ft | 491 kts | 64° |
| 2026-05-06 20:31 | 46.75564 | 13.46489 | 37971 ft | 490 kts | 64° |
| 2026-05-06 20:32 | 46.78783 | 13.55618 | 37956 ft | 490 kts | 64° |
| 2026-05-06 20:32 | 46.81901 | 13.64465 | 37946 ft | 490 kts | 64° |
| 2026-05-06 20:33 | 46.85042 | 13.73402 | 37952 ft | 490 kts | 65° |
| 2026-05-06 20:33 | 46.88204 | 13.82427 | 37962 ft | 490 kts | 65° |
| 2026-05-06 20:34 | 46.91412 | 13.91615 | 37950 ft | 489 kts | 65° |
| 2026-05-06 20:34 | 46.94575 | 14.00703 | 37812 ft | 486 kts | 65° |
| 2026-05-06 20:34 | 46.96127 | 14.05177 | 37210 ft | 484 kts | 65° |
| 2026-05-06 20:35 | 46.97679 | 14.09657 | 36275 ft | 490 kts | 65° |
| 2026-05-06 20:35 | 46.99231 | 14.14156 | 35383 ft | 498 kts | 65° |
| 2026-05-06 20:35 | 47.00860 | 14.18879 | 34451 ft | 504 kts | 64° |
| 2026-05-06 20:35 | 47.02488 | 14.23605 | 33470 ft | 508 kts | 64° |
| 2026-05-06 20:36 | 47.04133 | 14.28377 | 32490 ft | 512 kts | 64° |
| 2026-05-06 20:36 | 47.05784 | 14.33185 | 31567 ft | 513 kts | 64° |
| 2026-05-06 20:36 | 47.07415 | 14.37951 | 30718 ft | 512 kts | 64° |
| 2026-05-06 20:36 | 47.09077 | 14.42809 | 29851 ft | 512 kts | 65° |
| 2026-05-06 20:37 | 47.10627 | 14.47803 | 28971 ft | 510 kts | 69° |
| 2026-05-06 20:37 | 47.11875 | 14.52781 | 28223 ft | 505 kts | 74° |
| 2026-05-06 20:37 | 47.12876 | 14.57917 | 27829 ft | 494 kts | 77° |
| 2026-05-06 20:37 | 47.13740 | 14.62952 | 27447 ft | 493 kts | 78° |
| 2026-05-06 20:38 | 47.14568 | 14.67924 | 26822 ft | 492 kts | 79° |
| 2026-05-06 20:38 | 47.15422 | 14.73021 | 25495 ft | 502 kts | 79° |
| 2026-05-06 20:38 | 47.16314 | 14.78285 | 24020 ft | 511 kts | 78° |
| 2026-05-06 20:38 | 47.17210 | 14.83535 | 22916 ft | 511 kts | 78° |
| 2026-05-06 20:39 | 47.18082 | 14.88664 | 22232 ft | 502 kts | 78° |
| 2026-05-06 20:39 | 47.18950 | 14.93762 | 21510 ft | 496 kts | 78° |
| 2026-05-06 20:39 | 47.19825 | 14.98938 | 20723 ft | 491 kts | 78° |
| 2026-05-06 20:39 | 47.20685 | 15.04037 | 20480 ft | 479 kts | 78° |
| 2026-05-06 20:40 | 47.21552 | 15.09206 | 20338 ft | 477 kts | 78° |
| 2026-05-06 20:40 | 47.22400 | 15.14277 | 20210 ft | 475 kts | 78° |
| 2026-05-06 20:40 | 47.23249 | 15.19376 | 20067 ft | 475 kts | 78° |
| 2026-05-06 20:40 | 47.24112 | 15.24565 | 19920 ft | 474 kts | 78° |
| 2026-05-06 20:41 | 47.24965 | 15.29714 | 19790 ft | 473 kts | 78° |
| 2026-05-06 20:41 | 47.25823 | 15.34903 | 19652 ft | 472 kts | 78° |
| 2026-05-06 20:41 | 47.26677 | 15.40078 | 19511 ft | 471 kts | 78° |
| 2026-05-06 20:41 | 47.27522 | 15.45231 | 19356 ft | 471 kts | 78° |
| 2026-05-06 20:42 | 47.28356 | 15.50332 | 19195 ft | 469 kts | 78° |
| 2026-05-06 20:42 | 47.29168 | 15.55297 | 19035 ft | 469 kts | 78° |
| 2026-05-06 20:42 | 47.29990 | 15.60336 | 18863 ft | 455 kts | 78° |
| 2026-05-06 20:42 | 47.30760 | 15.65067 | 18724 ft | 438 kts | 79° |
| 2026-05-06 20:43 | 47.31515 | 15.69715 | 18586 ft | 422 kts | 79° |
| 2026-05-06 20:43 | 47.32246 | 15.74235 | 18445 ft | 407 kts | 79° |
| 2026-05-06 20:43 | 47.32939 | 15.78535 | 18314 ft | 392 kts | 79° |
| 2026-05-06 20:43 | 47.33585 | 15.82557 | 18202 ft | 379 kts | 79° |
| 2026-05-06 20:44 | 47.34208 | 15.86453 | 18093 ft | 366 kts | 80° |
| 2026-05-06 20:44 | 47.34793 | 15.90113 | 17987 ft | 353 kts | 80° |
| 2026-05-06 20:44 | 47.35360 | 15.93679 | 17884 ft | 348 kts | 80° |
| 2026-05-06 20:44 | 47.35919 | 15.97209 | 17849 ft | 347 kts | 80° |
| 2026-05-06 20:45 | 47.36489 | 16.00760 | 17846 ft | 349 kts | 77° |
| 2026-05-06 20:45 | 47.37539 | 16.04007 | 17818 ft | 354 kts | 51° |
| 2026-05-06 20:45 | 47.39553 | 16.06308 | 17829 ft | 354 kts | 21° |
| 2026-05-06 20:45 | 47.42102 | 16.07346 | 17845 ft | 353 kts | 9° |
| 2026-05-06 20:46 | 47.44630 | 16.08107 | 17841 ft | 353 kts | 10° |
| 2026-05-06 20:46 | 47.47115 | 16.08984 | 17839 ft | 353 kts | 13° |
| 2026-05-06 20:46 | 47.49607 | 16.10016 | 17838 ft | 354 kts | 15° |
| 2026-05-06 20:46 | 47.51978 | 16.11099 | 17842 ft | 355 kts | 16° |
| 2026-05-06 20:47 | 47.54362 | 16.12242 | 17837 ft | 355 kts | 17° |
| 2026-05-06 20:47 | 47.56808 | 16.13443 | 17836 ft | 354 kts | 17° |
| 2026-05-06 20:47 | 47.59308 | 16.14685 | 17826 ft | 352 kts | 17° |
| 2026-05-06 20:47 | 47.61721 | 16.15889 | 17546 ft | 349 kts | 17° |
| 2026-05-06 20:48 | 47.64149 | 16.17100 | 17092 ft | 349 kts | 17° |
| 2026-05-06 20:48 | 47.66596 | 16.18323 | 16657 ft | 347 kts | 17° |
| 2026-05-06 20:48 | 47.69086 | 16.19570 | 16221 ft | 346 kts | 17° |
| 2026-05-06 20:48 | 47.71379 | 16.20718 | 15851 ft | 344 kts | 17° |
| 2026-05-06 20:49 | 47.73621 | 16.21842 | 15468 ft | 343 kts | 17° |
| 2026-05-06 20:49 | 47.75872 | 16.23070 | 15079 ft | 342 kts | 25° |
| 2026-05-06 20:49 | 47.77711 | 16.25287 | 14632 ft | 342 kts | 54° |
| 2026-05-06 20:49 | 47.79012 | 16.28420 | 14222 ft | 338 kts | 63° |
| 2026-05-06 20:50 | 47.80201 | 16.31812 | 13751 ft | 340 kts | 64° |
| 2026-05-06 20:50 | 47.81433 | 16.35271 | 13153 ft | 345 kts | 63° |
| 2026-05-06 20:50 | 47.82735 | 16.38764 | 12548 ft | 350 kts | 61° |
| 2026-05-06 20:50 | 47.84111 | 16.42341 | 12113 ft | 347 kts | 60° |
| 2026-05-06 20:51 | 47.85424 | 16.45709 | 11849 ft | 340 kts | 60° |
| 2026-05-06 20:51 | 47.86762 | 16.49127 | 11804 ft | 325 kts | 60° |
| 2026-05-06 20:51 | 47.88041 | 16.52401 | 11812 ft | 324 kts | 60° |
| 2026-05-06 20:51 | 47.89278 | 16.55577 | 11816 ft | 324 kts | 60° |
| 2026-05-06 20:52 | 47.90486 | 16.58685 | 11819 ft | 322 kts | 60° |
| 2026-05-06 20:52 | 47.91708 | 16.61833 | 11553 ft | 318 kts | 60° |
| 2026-05-06 20:52 | 47.92942 | 16.65023 | 11119 ft | 319 kts | 61° |
| 2026-05-06 20:52 | 47.94159 | 16.68173 | 10717 ft | 318 kts | 61° |
| 2026-05-06 20:53 | 47.95385 | 16.71347 | 10334 ft | 317 kts | 61° |
| 2026-05-06 20:53 | 47.96592 | 16.74481 | 9944 ft | 316 kts | 61° |
| 2026-05-06 20:53 | 47.97758 | 16.77504 | 9573 ft | 314 kts | 61° |
| 2026-05-06 20:53 | 47.99125 | 16.80450 | 9160 ft | 313 kts | 41° |
| 2026-05-06 20:54 | 48.01072 | 16.81919 | 9032 ft | 304 kts | 6° |
| 2026-05-06 20:54 | 48.03122 | 16.81656 | 9022 ft | 293 kts | 333° |
| 2026-05-06 20:54 | 48.04937 | 16.80187 | 9025 ft | 289 kts | 324° |
| 2026-05-06 20:54 | 48.06747 | 16.78583 | 9030 ft | 289 kts | 325° |
| 2026-05-06 20:55 | 48.08540 | 16.77082 | 9016 ft | 291 kts | 327° |
| 2026-05-06 20:55 | 48.10453 | 16.75555 | 9006 ft | 292 kts | 328° |
| 2026-05-06 20:55 | 48.12460 | 16.73995 | 9003 ft | 292 kts | 328° |
| 2026-05-06 20:55 | 48.14386 | 16.72515 | 8912 ft | 288 kts | 328° |
| 2026-05-06 20:56 | 48.16217 | 16.71103 | 8522 ft | 288 kts | 328° |
| 2026-05-06 20:56 | 48.18029 | 16.69701 | 8153 ft | 288 kts | 328° |
| 2026-05-06 20:56 | 48.19866 | 16.68279 | 7828 ft | 285 kts | 328° |
| 2026-05-06 20:56 | 48.21674 | 16.66941 | 7505 ft | 284 kts | 331° |
| 2026-05-06 20:57 | 48.23636 | 16.65832 | 7172 ft | 285 kts | 338° |
| 2026-05-06 20:57 | 48.25691 | 16.64937 | 6830 ft | 284 kts | 340° |
| 2026-05-06 20:57 | 48.27710 | 16.64100 | 6553 ft | 281 kts | 340° |
| 2026-05-06 20:57 | 48.29685 | 16.63284 | 6428 ft | 282 kts | 340° |
| 2026-05-06 20:58 | 48.31599 | 16.62484 | 6305 ft | 281 kts | 340° |
| 2026-05-06 20:58 | 48.33691 | 16.61606 | 6168 ft | 280 kts | 340° |
| 2026-05-06 20:58 | 48.35819 | 16.60711 | 6028 ft | 280 kts | 339° |
| 2026-05-06 20:58 | 48.37843 | 16.59857 | 5898 ft | 280 kts | 339° |
| 2026-05-06 20:59 | 48.39830 | 16.59016 | 5769 ft | 280 kts | 340° |
| 2026-05-06 20:59 | 48.41742 | 16.58208 | 5643 ft | 280 kts | 339° |
| 2026-05-06 20:59 | 48.43682 | 16.57391 | 5462 ft | 273 kts | 339° |
| 2026-05-06 20:59 | 48.45587 | 16.56589 | 5278 ft | 266 kts | 339° |
| 2026-05-06 21:00 | 48.47362 | 16.55835 | 5147 ft | 259 kts | 339° |
| 2026-05-06 21:00 | 48.49106 | 16.55093 | 5025 ft | 260 kts | 339° |
| 2026-05-06 21:00 | 48.50864 | 16.54343 | 4994 ft | 261 kts | 338° |
| 2026-05-06 21:00 | 48.52470 | 16.53218 | 4970 ft | 248 kts | 312° |
| 2026-05-06 21:01 | 48.53418 | 16.51145 | 4983 ft | 234 kts | 284° |
| 2026-05-06 21:01 | 48.53592 | 16.48749 | 4987 ft | 226 kts | 259° |
| 2026-05-06 21:01 | 48.53200 | 16.46492 | 4990 ft | 225 kts | 252° |
| 2026-05-06 21:01 | 48.52600 | 16.44280 | 4970 ft | 224 kts | 233° |
| 2026-05-06 21:02 | 48.51360 | 16.42855 | 4978 ft | 229 kts | 203° |
| 2026-05-06 21:02 | 48.49784 | 16.42403 | 4990 ft | 233 kts | 188° |
| 2026-05-06 21:02 | 48.48152 | 16.42521 | 4990 ft | 236 kts | 176° |
| 2026-05-06 21:02 | 48.46515 | 16.43089 | 4995 ft | 239 kts | 170° |
| 2026-05-06 21:03 | 48.44917 | 16.43812 | 4997 ft | 239 kts | 169° |
| 2026-05-06 21:03 | 48.43301 | 16.44556 | 4999 ft | 239 kts | 170° |
| 2026-05-06 21:03 | 48.41687 | 16.45282 | 5003 ft | 241 kts | 170° |
| 2026-05-06 21:03 | 48.40039 | 16.46002 | 5006 ft | 241 kts | 171° |
| 2026-05-06 21:04 | 48.38335 | 16.46731 | 5008 ft | 240 kts | 171° |
| 2026-05-06 21:04 | 48.36663 | 16.47436 | 5009 ft | 240 kts | 171° |
| 2026-05-06 21:04 | 48.34902 | 16.48177 | 4995 ft | 232 kts | 171° |
| 2026-05-06 21:04 | 48.33220 | 16.48885 | 4819 ft | 226 kts | 172° |
| 2026-05-06 21:05 | 48.31564 | 16.49576 | 4493 ft | 227 kts | 172° |
| 2026-05-06 21:05 | 48.29952 | 16.50249 | 4171 ft | 227 kts | 172° |
| 2026-05-06 21:05 | 48.28334 | 16.50928 | 3848 ft | 228 kts | 172° |
| 2026-05-06 21:05 | 48.26763 | 16.51590 | 3536 ft | 227 kts | 173° |
| 2026-05-06 21:06 | 48.25171 | 16.52267 | 3206 ft | 213 kts | 173° |
| 2026-05-06 21:06 | 48.23670 | 16.52907 | 2995 ft | 195 kts | 173° |
| 2026-05-06 21:06 | 48.22274 | 16.53497 | 2690 ft | 179 kts | 173° |
| 2026-05-06 21:06 | 48.20997 | 16.54033 | 2439 ft | 162 kts | 173° |
| 2026-05-06 21:07 | 48.19834 | 16.54520 | 2170 ft | 148 kts | 173° |
| 2026-05-06 21:07 | 48.18766 | 16.54970 | 1936 ft | 133 kts | 173° |
| 2026-05-06 21:07 | 48.17773 | 16.55384 | 1749 ft | 129 kts | 172° |
| 2026-05-06 21:07 | 48.16797 | 16.55792 | 1570 ft | 129 kts | 171° |
| 2026-05-06 21:08 | 48.15860 | 16.56185 | 1405 ft | 129 kts | 170° |
| 2026-05-06 21:08 | 48.14903 | 16.56590 | 1217 ft | 129 kts | 169° |
| 2026-05-06 21:08 | 48.13932 | 16.56998 | 1029 ft | 129 kts | 168° |
| 2026-05-06 21:08 | 48.12974 | 16.57401 | 838 ft | 128 kts | 167° |
| 2026-05-06 21:09 | 48.12036 | 16.57799 | 667 ft | 127 kts | 166° |
| 2026-05-06 21:09 | 48.11110 | 16.58180 | 608 ft | 100 kts | 168° |
| 2026-05-06 21:09 | 48.10606 | 16.58389 | 608 ft | 51 kts | 164° |
| 2026-05-06 21:09 | 48.10261 | 16.58447 | 608 ft | 28 kts | 192° |
| 2026-05-06 21:10 | 48.10170 | 16.58414 | 608 ft | 0 kts | 195° |
| 2026-05-06 21:10 | 48.10166 | 16.58413 | 608 ft | 2 kts | 197° |
| 2026-05-06 21:10 | 48.10142 | 16.58396 | 608 ft | 3 kts | 215° |
| 2026-05-06 21:10 | 48.10120 | 16.58356 | 608 ft | 9 kts | 244° |
| 2026-05-06 21:11 | 48.10097 | 16.58228 | 608 ft | 12 kts | 289° |
| 2026-05-06 21:11 | 48.10168 | 16.58167 | 608 ft | 12 kts | 344° |
| 2026-05-06 21:11 | 48.10255 | 16.58128 | 608 ft | 13 kts | 344° |
| 2026-05-06 21:11 | 48.10368 | 16.58079 | 608 ft | 19 kts | 344° |
| 2026-05-06 21:12 | 48.10515 | 16.58019 | 608 ft | 21 kts | 345° |
| 2026-05-06 21:12 | 48.10664 | 16.57955 | 608 ft | 22 kts | 343° |
| 2026-05-06 21:12 | 48.10822 | 16.57886 | 608 ft | 23 kts | 345° |
| 2026-05-06 21:12 | 48.10985 | 16.57816 | 608 ft | 22 kts | 344° |
| 2026-05-06 21:13 | 48.11141 | 16.57735 | 608 ft | 21 kts | 320° |
| 2026-05-06 21:13 | 48.11208 | 16.57551 | 608 ft | 19 kts | 296° |
| 2026-05-06 21:13 | 48.11268 | 16.57368 | 608 ft | 18 kts | 296° |
| 2026-05-06 21:13 | 48.11324 | 16.57195 | 608 ft | 18 kts | 295° |
| 2026-05-06 21:14 | 48.11377 | 16.57029 | 608 ft | 17 kts | 296° |
| 2026-05-06 21:14 | 48.11432 | 16.56869 | 608 ft | 16 kts | 297° |
| 2026-05-06 21:14 | 48.11483 | 16.56713 | 608 ft | 16 kts | 296° |
| 2026-05-06 21:14 | 48.11532 | 16.56558 | 608 ft | 16 kts | 295° |
| 2026-05-06 21:15 | 48.11578 | 16.56409 | 608 ft | 15 kts | 295° |
| 2026-05-06 21:15 | 48.11628 | 16.56265 | 608 ft | 15 kts | 298° |
| 2026-05-06 21:15 | 48.11675 | 16.56125 | 608 ft | 15 kts | 296° |
| 2026-05-06 21:15 | 48.11720 | 16.55983 | 608 ft | 14 kts | 296° |
| 2026-05-06 21:16 | 48.11766 | 16.55844 | 608 ft | 14 kts | 298° |
| 2026-05-06 21:16 | 48.11811 | 16.55705 | 608 ft | 14 kts | 297° |
| 2026-05-06 21:16 | 48.11855 | 16.55574 | 608 ft | 13 kts | 296° |
| 2026-05-06 21:16 | 48.11894 | 16.55467 | 608 ft | 10 kts | 333° |
| 2026-05-06 21:17 | 48.11971 | 16.55478 | 608 ft | 8 kts | 22° |
| 2026-05-06 21:17 | 48.12025 | 16.55516 | 608 ft | 6 kts | 29° |
| 2026-05-06 21:17 | 48.12036 | 16.55552 | 608 ft | 0 kts | 119° |
| 2026-05-06 21:17 | 48.12031 | 16.55568 | 608 ft | 2 kts | 116° |
| 2026-05-06 21:18 | 48.12026 | 16.55586 | 608 ft | 0 kts | 116° |
| 2026-05-06 21:18 | 48.12024 | 16.55591 | 608 ft | 0 kts | 117° |
| 2026-05-06 21:18 | 48.12022 | 16.55595 | 608 ft | 0 kts | 117° |